createdAt,value
2023-03-11T00:01:30.174Z,69.40
2023-03-11T00:04:03.061Z,70.00
2023-03-11T00:06:34.290Z,69.80
2023-03-11T00:09:09.534Z,70.30
2023-03-11T00:11:40.454Z,70.30
2023-03-11T00:14:20.968Z,70.40
2023-03-11T00:16:49.293Z,70.80
2023-03-11T00:19:22.936Z,70.00
2023-03-11T00:21:51.172Z,70.50
2023-03-11T00:24:21.108Z,70.50
2023-03-11T00:26:51.800Z,70.80
2023-03-11T00:29:25.549Z,71.10
2023-03-11T00:32:06.635Z,71.30
2023-03-11T00:34:45.125Z,71.60
2023-03-11T00:37:21.229Z,71.70
2023-03-11T00:39:58.372Z,71.90
2023-03-11T00:42:40.086Z,71.90
2023-03-11T00:45:22.905Z,71.40
2023-03-11T00:48:04.888Z,72.10
2023-03-11T00:50:42.265Z,72.20
2023-03-11T00:53:20.294Z,72.40
2023-03-11T00:56:13.517Z,72.80
2023-03-11T00:58:59.474Z,73.00
2023-03-11T01:01:41.408Z,73.00
2023-03-11T01:04:15.389Z,73.40
2023-03-11T01:06:48.214Z,73.60
2023-03-11T01:09:16.532Z,73.40
2023-03-11T01:12:09.101Z,73.60
2023-03-11T01:14:52.694Z,73.70
2023-03-11T01:17:25.160Z,73.60
2023-03-11T01:20:10.941Z,73.80
2023-03-11T01:22:55.421Z,73.90
2023-03-11T01:25:31.147Z,74.40
2023-03-11T01:28:24.736Z,73.50
2023-03-11T01:31:00.937Z,73.70
2023-03-11T01:33:35.913Z,73.70
2023-03-11T01:36:08.050Z,73.40
2023-03-11T01:38:42.893Z,73.60
2023-03-11T01:41:24.370Z,73.70
2023-03-11T01:44:00.863Z,73.70
2023-03-11T01:47:16.366Z,74.60
2023-03-11T01:49:46.826Z,73.30
2023-03-11T01:52:15.320Z,73.20
2023-03-11T01:54:52.248Z,73.50
2023-03-11T01:57:22.980Z,73.40
2023-03-11T02:00:09.304Z,73.30
2023-03-11T02:02:45.020Z,73.00
2023-03-11T02:05:18.584Z,72.80
2023-03-11T02:07:47.704Z,73.00
2023-03-11T02:10:23.731Z,72.70
2023-03-11T02:13:00.680Z,73.00
2023-03-11T02:15:37.358Z,73.10
2023-03-11T02:18:09.243Z,72.90
2023-03-11T02:20:49.522Z,72.90
2023-03-11T02:23:19.582Z,73.00
2023-03-11T02:25:57.229Z,72.90
2023-03-11T02:28:32.364Z,72.80
2023-03-11T02:31:01.532Z,73.10
2023-03-11T02:33:42.930Z,73.20
2023-03-11T02:36:42.494Z,73.10
2023-03-11T02:39:14.356Z,72.90
2023-03-11T02:41:53.626Z,73.00
2023-03-11T02:44:28.753Z,73.00
2023-03-11T02:47:18.132Z,73.30
2023-03-11T02:49:56.776Z,72.90
2023-03-11T02:52:42.071Z,73.00
2023-03-11T02:55:18.440Z,73.20
2023-03-11T02:57:52.523Z,73.10
2023-03-11T03:00:27.568Z,73.00
2023-03-11T03:03:08.434Z,73.20
2023-03-11T03:26:12.069Z,73.70
2023-03-11T03:28:44.736Z,73.90
2023-03-11T03:31:15.961Z,74.30
2023-03-11T03:33:47.441Z,74.40
2023-03-11T03:36:19.620Z,74.70
2023-03-11T03:39:33.512Z,74.70
2023-03-11T03:42:20.272Z,74.90
2023-03-11T03:44:49.191Z,74.80
2023-03-11T03:47:20.521Z,74.90
2023-03-11T03:50:00.613Z,75.00
2023-03-11T03:52:33.777Z,75.10
2023-03-11T03:55:09.093Z,75.50
2023-03-11T03:57:47.687Z,75.30
2023-03-11T04:00:25.692Z,75.70
2023-03-11T04:03:00.012Z,75.70
2023-03-11T04:05:56.752Z,76.00
2023-03-11T04:08:25.312Z,76.30
2023-03-11T04:10:58.620Z,75.90
2023-03-11T04:13:28.707Z,76.10
2023-03-11T04:15:57.582Z,76.30
2023-03-11T04:18:26.289Z,76.30
2023-03-11T04:20:57.007Z,76.30
2023-03-11T04:23:25.587Z,76.40
2023-03-11T04:25:54.082Z,76.50
2023-03-11T04:28:22.855Z,76.90
2023-03-11T04:30:51.849Z,76.60
2023-03-11T04:33:23.215Z,76.90
2023-03-11T04:35:51.887Z,76.70
2023-03-11T04:38:23.949Z,76.90
2023-03-11T04:40:53.038Z,77.00
2023-03-11T04:43:21.870Z,77.10
2023-03-11T04:45:52.347Z,77.30
2023-03-11T04:48:20.753Z,77.40
2023-03-11T04:50:49.839Z,77.30
2023-03-11T04:53:26.966Z,77.30
2023-03-11T04:55:55.751Z,77.30
2023-03-11T04:58:24.362Z,77.70
2023-03-11T05:00:54.414Z,78.00
2023-03-11T05:03:23.350Z,77.70
2023-03-11T05:05:53.135Z,77.80
2023-03-11T05:08:24.303Z,78.00
2023-03-11T05:10:54.098Z,77.80
2023-03-11T05:13:26.334Z,77.90
2023-03-11T05:15:56.841Z,78.30
2023-03-11T05:18:25.558Z,78.20
2023-03-11T05:20:54.390Z,78.40
2023-03-11T05:23:30.248Z,78.10
2023-03-11T05:26:00.200Z,77.90
2023-03-11T05:28:32.822Z,78.00
2023-03-11T05:31:04.500Z,78.00
2023-03-11T05:33:36.352Z,78.10
2023-03-11T05:36:08.466Z,78.10
2023-03-11T05:38:40.404Z,77.60
2023-03-11T05:41:15.033Z,77.70
2023-03-11T05:43:45.052Z,78.00
2023-03-11T05:46:15.607Z,77.60
2023-03-11T05:48:45.105Z,77.60
2023-03-11T05:51:15.281Z,77.30
2023-03-11T05:53:48.778Z,77.00
2023-03-11T05:56:24.447Z,77.00
2023-03-11T05:58:55.215Z,76.90
2023-03-11T06:01:24.098Z,76.80
2023-03-11T06:03:52.788Z,76.50
2023-03-11T06:06:21.085Z,76.40
2023-03-11T06:08:51.312Z,76.20
2023-03-11T06:11:23.916Z,76.10
2023-03-11T06:13:54.666Z,75.80
2023-03-11T06:16:27.235Z,76.10
2023-03-11T06:19:00.700Z,75.90
2023-03-11T06:21:38.828Z,75.90
2023-03-11T06:24:15.077Z,75.50
2023-03-11T06:26:45.282Z,75.50
2023-03-11T06:29:16.670Z,75.50
2023-03-11T06:31:49.719Z,75.40
2023-03-11T06:34:18.977Z,75.90
2023-03-11T06:36:47.575Z,75.40
2023-03-11T06:39:17.673Z,75.50
2023-03-11T06:41:49.139Z,75.50
2023-03-11T06:44:21.941Z,75.30
2023-03-11T06:46:50.654Z,75.00
2023-03-11T06:49:19.973Z,75.00
2023-03-11T06:51:48.480Z,75.30
2023-03-11T06:54:21.660Z,74.90
2023-03-11T06:56:50.038Z,74.70
2023-03-11T06:59:19.244Z,74.50
2023-03-11T07:01:47.553Z,74.80
2023-03-11T07:04:20.581Z,74.40
2023-03-11T07:06:49.603Z,74.40
2023-03-11T07:09:25.269Z,74.30
2023-03-11T07:11:54.219Z,74.10
2023-03-11T07:14:29.032Z,74.30
2023-03-11T07:16:59.355Z,73.90
2023-03-11T07:19:33.475Z,73.90
2023-03-11T07:22:01.938Z,73.90
2023-03-11T07:24:31.882Z,73.90
2023-03-11T07:27:02.953Z,73.90
2023-03-11T07:29:31.628Z,74.00
2023-03-11T07:32:00.179Z,74.00
2023-03-11T07:34:32.014Z,73.90
2023-03-11T07:37:00.675Z,73.80
2023-03-11T07:39:29.378Z,73.60
2023-03-11T07:41:59.149Z,73.70
2023-03-11T07:44:38.848Z,73.70
2023-03-11T07:47:10.624Z,73.30
2023-03-11T07:49:47.043Z,73.80
2023-03-11T07:52:15.627Z,73.90
2023-03-11T07:55:06.532Z,73.50
2023-03-11T07:57:43.877Z,73.20
2023-03-11T08:00:19.338Z,73.50
2023-03-11T08:02:58.700Z,72.90
2023-03-11T08:05:41.335Z,72.70
2023-03-11T08:08:10.962Z,72.90
2023-03-11T08:10:43.899Z,72.60
2023-03-11T08:13:16.838Z,72.70
2023-03-11T08:15:54.358Z,72.80
2023-03-11T08:18:25.789Z,72.60
2023-03-11T08:20:57.477Z,72.70
2023-03-11T08:23:35.119Z,72.40
2023-03-11T08:26:11.503Z,72.70
2023-03-11T08:28:50.496Z,73.20
2023-03-11T08:31:25.107Z,72.60
2023-03-11T08:33:56.598Z,72.60
2023-03-11T08:36:34.542Z,72.20
2023-03-11T08:39:10.679Z,72.60
2023-03-11T08:41:43.752Z,72.30
2023-03-11T08:44:21.840Z,72.30
2023-03-11T08:46:53.484Z,72.60
2023-03-11T08:49:23.412Z,72.60
2023-03-11T08:51:52.746Z,72.70
2023-03-11T08:54:36.765Z,72.70
2023-03-11T08:57:29.380Z,72.70
2023-03-11T09:00:22.271Z,72.30
2023-03-11T09:03:28.042Z,72.40
2023-03-11T09:09:06.820Z,72.00
2023-03-11T09:11:37.763Z,72.10
2023-03-11T09:14:07.174Z,72.10
2023-03-11T09:16:50.764Z,71.90
2023-03-11T09:19:49.695Z,71.70
2023-03-11T09:25:36.010Z,71.70
2023-03-11T09:28:09.368Z,71.70
2023-03-11T09:30:39.658Z,72.30
2023-03-11T09:37:49.267Z,72.50
2023-03-11T09:43:33.325Z,72.70
2023-03-11T09:46:15.677Z,72.80
2023-03-11T09:48:57.412Z,73.20
2023-03-11T09:54:40.493Z,73.00
2023-03-11T09:57:14.945Z,73.20
2023-03-11T09:59:48.923Z,73.10
2023-03-11T10:02:27.050Z,73.50
2023-03-11T10:05:05.129Z,73.40
2023-03-11T10:07:41.029Z,73.50
2023-03-11T10:10:16.612Z,73.20
2023-03-11T10:13:07.146Z,73.40
2023-03-11T10:15:56.378Z,73.00
2023-03-11T10:18:53.617Z,72.80
2023-03-11T10:21:47.697Z,72.60
2023-03-11T10:24:38.538Z,72.70
2023-03-11T10:27:15.992Z,72.60
2023-03-11T10:29:54.085Z,72.70
2023-03-11T10:32:41.265Z,72.70
2023-03-11T10:35:46.369Z,72.10
2023-03-11T10:38:21.671Z,72.20
2023-03-11T10:44:29.543Z,71.80
2023-03-11T10:47:50.428Z,71.60
2023-03-11T10:50:21.990Z,71.40
2023-03-11T10:53:09.565Z,71.40
2023-03-11T10:55:47.835Z,71.50
2023-03-11T10:58:36.238Z,71.20
2023-03-11T11:01:29.361Z,71.30
2023-03-11T11:04:00.928Z,71.10
2023-03-11T11:06:37.296Z,70.20
2023-03-11T11:09:19.750Z,69.80
2023-03-11T11:12:06.957Z,69.70
2023-03-11T11:18:52.286Z,70.10
2023-03-11T11:25:45.368Z,70.30
2023-03-11T11:49:15.507Z,70.70
2023-03-11T11:51:50.300Z,72.70
2023-03-11T11:54:33.884Z,72.60
2023-03-11T11:57:10.870Z,70.00
2023-03-11T11:59:43.462Z,69.60
2023-03-11T12:03:02.545Z,68.60
2023-03-11T12:05:40.175Z,68.00
2023-03-11T12:27:53.561Z,67.20
2023-03-11T12:34:53.477Z,67.10
2023-03-11T12:37:49.017Z,66.50
2023-03-11T12:41:27.671Z,65.90
2023-03-11T12:44:41.954Z,65.50
2023-03-11T12:48:12.558Z,65.50
2023-03-11T12:50:49.572Z,66.10
2023-03-11T12:56:38.731Z,66.90
2023-03-11T12:59:40.435Z,67.00
2023-03-11T13:02:58.213Z,67.20
2023-03-11T13:05:32.350Z,67.40
2023-03-11T13:11:46.726Z,67.30
2023-03-11T13:14:40.204Z,67.60
2023-03-11T13:17:32.573Z,68.70
2023-03-11T13:20:04.991Z,69.40
2023-03-11T13:27:29.936Z,68.90
2023-03-11T13:30:41.144Z,71.90
2023-03-11T13:33:54.172Z,70.30
2023-03-11T13:48:46.381Z,64.00
2023-03-11T13:51:40.600Z,63.00
2023-03-11T13:55:16.216Z,63.30
2023-03-11T13:57:59.700Z,63.50
2023-03-11T14:00:40.054Z,63.90
2023-03-11T14:03:27.749Z,64.00
2023-03-11T14:06:32.304Z,64.40
2023-03-11T14:09:08.148Z,64.30
2023-03-11T14:11:47.684Z,64.40
2023-03-11T14:14:35.398Z,64.60
2023-03-11T14:17:05.348Z,64.60
2023-03-11T14:19:36.768Z,65.00
2023-03-11T14:22:22.807Z,65.40
2023-03-11T14:25:00.595Z,65.70
2023-03-11T14:27:29.604Z,65.00
2023-03-11T14:30:37.408Z,64.40
2023-03-11T14:33:30.668Z,63.80
2023-03-11T14:36:09.064Z,63.60
2023-03-11T14:38:44.566Z,64.00
2023-03-11T14:41:16.998Z,64.70
2023-03-11T14:43:51.406Z,64.00
2023-03-11T14:46:32.482Z,64.30
2023-03-11T14:52:34.764Z,63.90
2023-03-11T14:55:30.148Z,64.10
2023-03-11T15:16:27.310Z,61.90
2023-03-11T15:23:05.159Z,62.90
2023-03-11T15:30:11.626Z,62.80
2023-03-11T15:33:21.906Z,62.60
2023-03-11T15:35:55.194Z,62.60
2023-03-11T15:39:16.001Z,62.70
2023-03-11T15:41:47.972Z,62.80
2023-03-11T15:44:26.421Z,62.50
2023-03-11T15:46:54.883Z,62.30
2023-03-11T15:49:37.256Z,62.30
2023-03-11T15:52:46.512Z,62.00
2023-03-11T15:55:20.809Z,61.70
2023-03-11T15:57:50.485Z,61.20
2023-03-11T16:00:22.485Z,61.10
2023-03-11T16:16:56.128Z,61.00
2023-03-11T16:19:32.546Z,60.90
2023-03-11T16:25:08.921Z,60.90
2023-03-11T16:27:46.019Z,60.60
2023-03-11T16:30:38.461Z,61.00
2023-03-11T16:33:10.509Z,60.90
2023-03-11T16:35:41.662Z,60.90
2023-03-11T16:38:14.369Z,60.90
2023-03-11T16:40:44.543Z,61.20
2023-03-11T16:43:23.274Z,61.30
2023-03-11T16:46:00.296Z,61.40
2023-03-11T16:52:01.251Z,61.00
2023-03-11T16:55:10.061Z,61.30
2023-03-11T17:03:27.559Z,61.20
2023-03-11T17:06:28.892Z,61.40
2023-03-11T17:50:57.027Z,62.10
2023-03-11T18:00:44.225Z,62.40
2023-03-11T18:05:09.604Z,62.60
2023-03-11T18:07:53.523Z,62.50
2023-03-11T18:10:24.646Z,62.60
2023-03-11T18:16:54.080Z,62.70
2023-03-11T18:19:22.496Z,62.90
2023-03-11T18:25:52.668Z,62.90
2023-03-11T18:28:39.889Z,62.80
2023-03-11T18:32:01.668Z,63.40
2023-03-11T18:34:43.217Z,62.80
2023-03-11T18:37:35.609Z,62.70
2023-03-11T18:40:32.720Z,63.30
2023-03-11T18:47:01.932Z,62.90
2023-03-11T18:50:12.292Z,63.50
2023-03-11T18:53:13.257Z,63.00
2023-03-11T18:56:37.423Z,63.10
2023-03-11T19:02:34.347Z,63.90
2023-03-11T19:05:08.440Z,63.50
2023-03-11T19:07:48.134Z,63.60
2023-03-11T19:10:31.342Z,63.20
2023-03-11T19:16:23.543Z,63.20
2023-03-11T19:22:12.558Z,63.40
2023-03-11T19:24:50.726Z,63.30
2023-03-11T19:27:22.661Z,63.40
2023-03-11T19:30:24.952Z,63.50
2023-03-11T19:33:00.588Z,63.20
2023-03-11T19:36:08.420Z,63.40
2023-03-11T19:38:57.758Z,63.10
2023-03-11T19:41:29.177Z,64.10
2023-03-11T19:44:05.246Z,63.40
2023-03-11T19:46:37.415Z,63.60
2023-03-11T19:49:07.792Z,63.60
2023-03-11T19:51:50.232Z,63.50
2023-03-11T19:54:20.942Z,63.50
2023-03-11T19:56:49.878Z,63.50
2023-03-11T19:59:18.358Z,63.60
2023-03-11T20:01:46.820Z,63.40
2023-03-11T20:04:19.412Z,63.60
2023-03-11T20:06:51.592Z,63.60
2023-03-11T20:09:23.768Z,63.30
2023-03-11T20:11:52.506Z,63.60
2023-03-11T20:14:23.776Z,63.70
2023-03-11T20:16:55.449Z,64.00
2023-03-11T20:25:22.716Z,63.90
2023-03-11T20:27:51.354Z,63.80
2023-03-11T20:30:20.682Z,63.90
2023-03-11T20:32:55.188Z,63.60
2023-03-11T20:35:26.023Z,63.80
2023-03-11T20:37:54.629Z,63.90
2023-03-11T20:40:23.520Z,64.10
2023-03-11T20:42:52.187Z,63.90
2023-03-11T20:45:22.311Z,64.00
2023-03-11T20:47:56.457Z,63.90
2023-03-11T20:50:37.604Z,63.80
2023-03-11T20:53:14.759Z,63.70
2023-03-11T20:55:54.132Z,64.00
2023-03-11T20:58:22.555Z,63.80
2023-03-11T21:00:53.382Z,64.10
2023-03-11T21:03:29.640Z,64.00
2023-03-11T21:06:00.803Z,63.80
2023-03-11T21:08:40.764Z,63.90
2023-03-11T21:11:09.909Z,63.70
2023-03-11T21:13:38.351Z,64.10
2023-03-11T21:16:11.033Z,64.00
2023-03-11T21:18:40.081Z,63.80
2023-03-11T21:21:11.806Z,64.20
2023-03-11T21:23:41.015Z,64.10
2023-03-11T21:26:11.131Z,63.80
2023-03-11T21:28:48.730Z,64.10
2023-03-11T21:44:46.377Z,64.30
2023-03-11T21:47:17.601Z,64.40
2023-03-11T21:49:46.292Z,64.30
2023-03-11T21:52:15.195Z,64.40
2023-03-11T21:54:43.699Z,64.40
2023-03-11T21:57:12.281Z,64.60
2023-03-11T21:59:40.736Z,64.70
2023-03-11T22:02:17.303Z,64.60
2023-03-11T22:04:46.157Z,64.70
2023-03-11T22:07:14.535Z,64.60
2023-03-11T22:09:43.088Z,64.70
2023-03-11T22:12:12.020Z,64.50
2023-03-11T22:14:40.700Z,64.40
2023-03-11T22:17:09.276Z,64.60
2023-03-11T22:19:58.290Z,64.30
2023-03-11T22:22:26.825Z,64.50
2023-03-11T22:24:55.266Z,64.60
2023-03-11T22:27:26.264Z,64.50
2023-03-11T22:29:54.695Z,64.40
2023-03-11T22:32:23.333Z,64.50
2023-03-11T22:34:53.192Z,64.80
2023-03-11T22:37:21.741Z,64.40
2023-03-11T22:39:50.096Z,64.50
2023-03-11T22:42:18.346Z,64.30
2023-03-11T22:44:46.973Z,65.00
2023-03-11T22:47:15.626Z,64.50
2023-03-11T22:49:43.972Z,64.40
2023-03-11T22:52:13.741Z,64.40
2023-03-11T22:54:42.784Z,64.60
2023-03-11T22:57:11.202Z,64.30
2023-03-11T22:59:40.584Z,64.50
2023-03-11T23:02:09.304Z,64.60
2023-03-11T23:04:39.575Z,64.40
2023-03-11T23:07:08.067Z,64.50
2023-03-11T23:09:39.481Z,64.50
2023-03-11T23:12:08.647Z,64.50
2023-03-11T23:14:45.081Z,64.30
2023-03-11T23:17:13.721Z,64.40
2023-03-11T23:19:42.015Z,64.50
2023-03-11T23:22:10.460Z,64.50
2023-03-11T23:24:50.355Z,64.20
2023-03-11T23:27:18.625Z,64.40
2023-03-11T23:29:48.024Z,64.40
2023-03-11T23:32:16.617Z,64.30
2023-03-11T23:34:46.197Z,64.10
2023-03-11T23:37:14.614Z,64.00
2023-03-11T23:39:44.488Z,64.20
2023-03-11T23:42:25.070Z,64.20
2023-03-11T23:44:54.114Z,64.00
2023-03-11T23:47:22.266Z,63.80
2023-03-11T23:49:50.558Z,63.80
2023-03-11T23:52:18.882Z,63.80
2023-03-11T23:54:48.870Z,63.80
2023-03-11T23:57:17.197Z,63.80
2023-03-11T23:59:45.576Z,63.80
